sensor_id;sensor_type;location;lat;lon;timestamp;P1;durP1;ratioP1;P2;durP2;ratioP2
44446;SDS011;30152;52.066;5.358;2024-03-02T08:05:14;4.20;;;0.73;;
44446;SDS011;30152;52.066;5.358;2024-03-02T08:07:40;5.37;;;0.80;;
44446;SDS011;30152;52.066;5.358;2024-03-02T08:10:07;4.83;;;0.60;;
44446;SDS011;30152;52.066;5.358;2024-03-02T08:12:33;2.47;;;0.60;;
44446;SDS011;30152;52.066;5.358;2024-03-02T08:14:59;6.20;;;0.80;;
44446;SDS011;30152;52.066;5.358;2024-03-02T08:17:25;4.28;;;0.70;;
44446;SDS011;30152;52.066;5.358;2024-03-02T08:19:51;3.95;;;0.90;;
44446;SDS011;30152;52.066;5.358;2024-03-02T08:22:17;3.23;;;0.60;;
44446;SDS011;30152;52.066;5.358;2024-03-02T08:24:43;6.73;;;0.67;;
44446;SDS011;30152;52.066;5.358;2024-03-02T08:27:09;3.35;;;0.60;;
44446;SDS011;30152;52.066;5.358;2024-03-02T08:29:35;6.13;;;0.73;;
44446;SDS011;30152;52.066;5.358;2024-03-02T08:32:01;5.10;;;0.77;;
44446;SDS011;30152;52.066;5.358;2024-03-02T08:34:27;3.60;;;0.70;;
44446;SDS011;30152;52.066;5.358;2024-03-02T08:36:53;4.95;;;0.77;;
44446;SDS011;30152;52.066;5.358;2024-03-02T08:39:19;5.22;;;0.90;;
44446;SDS011;30152;52.066;5.358;2024-03-02T08:41:46;4.75;;;0.90;;
44446;SDS011;30152;52.066;5.358;2024-03-02T08:44:12;4.53;;;0.80;;
44446;SDS011;30152;52.066;5.358;2024-03-02T08:46:38;4.50;;;0.60;;
44446;SDS011;30152;52.066;5.358;2024-03-02T08:49:04;2.85;;;0.57;;
44446;SDS011;30152;52.066;5.358;2024-03-02T08:51:30;4.20;;;0.68;;
44446;SDS011;30152;52.066;5.358;2024-03-02T08:53:56;3.88;;;0.68;;
44446;SDS011;30152;52.066;5.358;2024-03-02T08:56:23;4.35;;;0.80;;
44446;SDS011;30152;52.066;5.358;2024-03-02T08:58:49;4.90;;;0.73;;
44446;SDS011;30152;52.066;5.358;2024-03-02T09:01:16;4.10;;;0.80;;
44446;SDS011;30152;52.066;5.358;2024-03-02T09:03:42;7.17;;;0.90;;
44446;SDS011;30152;52.066;5.358;2024-03-02T09:06:11;3.75;;;0.80;;
44446;SDS011;30152;52.066;5.358;2024-03-02T09:08:37;6.03;;;0.90;;
44446;SDS011;30152;52.066;5.358;2024-03-02T09:11:04;5.13;;;0.80;;
44446;SDS011;30152;52.066;5.358;2024-03-02T09:13:30;6.38;;;0.82;;
44446;SDS011;30152;52.066;5.358;2024-03-02T09:15:56;7.60;;;0.80;;
44446;SDS011;30152;52.066;5.358;2024-03-02T09:18:22;6.05;;;0.82;;
44446;SDS011;30152;52.066;5.358;2024-03-02T09:20:48;4.17;;;0.90;;
44446;SDS011;30152;52.066;5.358;2024-03-02T09:23:14;5.07;;;0.73;;
44446;SDS011;30152;52.066;5.358;2024-03-02T09:25:40;5.43;;;0.75;;
44446;SDS011;30152;52.066;5.358;2024-03-02T09:28:06;6.78;;;0.90;;
44446;SDS011;30152;52.066;5.358;2024-03-02T09:30:32;7.55;;;1.10;;
44446;SDS011;30152;52.066;5.358;2024-03-02T09:32:58;7.53;;;0.98;;
44446;SDS011;30152;52.066;5.358;2024-03-02T09:35:24;6.75;;;0.88;;
44446;SDS011;30152;52.066;5.358;2024-03-02T09:37:50;4.60;;;0.82;;
44446;SDS011;30152;52.066;5.358;2024-03-02T09:40:16;5.57;;;0.93;;
44446;SDS011;30152;52.066;5.358;2024-03-02T09:42:42;4.97;;;0.82;;
44446;SDS011;30152;52.066;5.358;2024-03-02T09:45:09;6.13;;;1.08;;
44446;SDS011;30152;52.066;5.358;2024-03-02T09:47:35;6.60;;;1.25;;
44446;SDS011;30152;52.066;5.358;2024-03-02T09:50:01;6.18;;;1.13;;
44446;SDS011;30152;52.066;5.358;2024-03-02T09:52:27;8.02;;;1.02;;
44446;SDS011;30152;52.066;5.358;2024-03-02T09:54:53;5.53;;;0.90;;
44446;SDS011;30152;52.066;5.358;2024-03-02T09:57:19;4.63;;;0.82;;
44446;SDS011;30152;52.066;5.358;2024-03-02T09:59:45;6.15;;;1.00;;
44446;SDS011;30152;52.066;5.358;2024-03-02T10:02:11;9.47;;;1.40;;
44446;SDS011;30152;52.066;5.358;2024-03-02T10:04:37;5.90;;;0.80;;
44446;SDS011;30152;52.066;5.358;2024-03-02T10:07:09;6.82;;;1.10;;
44446;SDS011;30152;52.066;5.358;2024-03-02T10:09:39;6.72;;;1.02;;
44446;SDS011;30152;52.066;5.358;2024-03-02T10:12:05;7.22;;;1.10;;
44446;SDS011;30152;52.066;5.358;2024-03-02T10:14:32;5.15;;;0.80;;
44446;SDS011;30152;52.066;5.358;2024-03-02T10:17:05;6.13;;;0.70;;
44446;SDS011;30152;52.066;5.358;2024-03-02T10:19:32;7.55;;;1.30;;
44446;SDS011;30152;52.066;5.358;2024-03-02T10:21:59;9.80;;;1.20;;
44446;SDS011;30152;52.066;5.358;2024-03-02T10:24:26;7.68;;;0.85;;
44446;SDS011;30152;52.066;5.358;2024-03-02T10:26:52;7.15;;;1.00;;
44446;SDS011;30152;52.066;5.358;2024-03-02T10:29:18;5.60;;;0.73;;
44446;SDS011;30152;52.066;5.358;2024-03-02T10:31:45;6.40;;;1.17;;
44446;SDS011;30152;52.066;5.358;2024-03-02T10:34:11;6.60;;;0.98;;
44446;SDS011;30152;52.066;5.358;2024-03-02T10:36:38;5.65;;;1.05;;
44446;SDS011;30152;52.066;5.358;2024-03-02T10:39:06;7.10;;;1.03;;
44446;SDS011;30152;52.066;5.358;2024-03-02T10:41:36;6.38;;;0.90;;
44446;SDS011;30152;52.066;5.358;2024-03-02T10:44:03;4.80;;;1.17;;
44446;SDS011;30152;52.066;5.358;2024-03-02T10:46:33;4.25;;;0.80;;
44446;SDS011;30152;52.066;5.358;2024-03-02T10:49:00;509.70;;;460.50;;
44446;SDS011;30152;52.066;5.358;2024-03-02T10:51:28;954.50;;;848.57;;
44446;SDS011;30152;52.066;5.358;2024-03-02T11:01:21;904.70;;;752.00;;
44446;SDS011;30152;52.066;5.358;2024-03-02T11:06:13;941.90;;;837.90;;
44446;SDS011;30152;52.066;5.358;2024-03-02T11:08:39;969.22;;;867.78;;
44446;SDS011;30152;52.066;5.358;2024-03-02T11:13:32;4.65;;;0.60;;
44446;SDS011;30152;52.066;5.358;2024-03-02T11:15:59;5.77;;;0.90;;
44446;SDS011;30152;52.066;5.358;2024-03-02T11:18:28;6.93;;;1.10;;
44446;SDS011;30152;52.066;5.358;2024-03-02T11:20:54;6.97;;;0.80;;
44446;SDS011;30152;52.066;5.358;2024-03-02T11:23:21;498.57;;;448.70;;
44446;SDS011;30152;52.066;5.358;2024-03-02T11:26:30;196.73;;;76.68;;
44446;SDS011;30152;52.066;5.358;2024-03-02T11:28:50;3.50;;;0.73;;
44446;SDS011;30152;52.066;5.358;2024-03-02T11:31:16;5.82;;;0.80;;
44446;SDS011;30152;52.066;5.358;2024-03-02T11:33:42;3.13;;;0.73;;
44446;SDS011;30152;52.066;5.358;2024-03-02T11:36:09;4.43;;;0.70;;
44446;SDS011;30152;52.066;5.358;2024-03-02T11:38:35;7.00;;;1.20;;
44446;SDS011;30152;52.066;5.358;2024-03-02T11:41:02;6.22;;;0.80;;
44446;SDS011;30152;52.066;5.358;2024-03-02T11:43:29;6.43;;;0.93;;
44446;SDS011;30152;52.066;5.358;2024-03-02T11:45:58;6.78;;;0.85;;
44446;SDS011;30152;52.066;5.358;2024-03-02T11:48:31;6.05;;;0.85;;
44446;SDS011;30152;52.066;5.358;2024-03-02T11:50:58;6.95;;;1.30;;
44446;SDS011;30152;52.066;5.358;2024-03-02T11:53:24;5.20;;;0.80;;
44446;SDS011;30152;52.066;5.358;2024-03-02T11:55:55;7.55;;;0.95;;
44446;SDS011;30152;52.066;5.358;2024-03-02T11:58:21;5.67;;;0.93;;
44446;SDS011;30152;52.066;5.358;2024-03-02T12:00:52;6.63;;;1.08;;
44446;SDS011;30152;52.066;5.358;2024-03-02T12:03:20;5.50;;;0.88;;
44446;SDS011;30152;52.066;5.358;2024-03-02T12:05:50;3.72;;;0.68;;
44446;SDS011;30152;52.066;5.358;2024-03-02T12:08:17;4.72;;;0.70;;
44446;SDS011;30152;52.066;5.358;2024-03-02T12:10:43;6.82;;;1.20;;
44446;SDS011;30152;52.066;5.358;2024-03-02T12:13:09;5.30;;;1.38;;
44446;SDS011;30152;52.066;5.358;2024-03-02T12:15:38;6.40;;;1.00;;
44446;SDS011;30152;52.066;5.358;2024-03-02T12:18:05;4.13;;;0.80;;
44446;SDS011;30152;52.066;5.358;2024-03-02T12:20:31;5.45;;;0.75;;
44446;SDS011;30152;52.066;5.358;2024-03-02T12:22:59;4.90;;;0.80;;
44446;SDS011;30152;52.066;5.358;2024-03-02T12:25:27;5.05;;;0.95;;
44446;SDS011;30152;52.066;5.358;2024-03-02T12:27:54;3.83;;;0.77;;
44446;SDS011;30152;52.066;5.358;2024-03-02T12:30:20;5.13;;;0.90;;
44446;SDS011;30152;52.066;5.358;2024-03-02T12:32:47;4.55;;;0.68;;
44446;SDS011;30152;52.066;5.358;2024-03-02T12:35:13;5.70;;;0.82;;
44446;SDS011;30152;52.066;5.358;2024-03-02T12:37:45;6.73;;;0.93;;
44446;SDS011;30152;52.066;5.358;2024-03-02T12:40:16;4.30;;;0.60;;
44446;SDS011;30152;52.066;5.358;2024-03-02T12:42:45;4.72;;;1.13;;
44446;SDS011;30152;52.066;5.358;2024-03-02T12:45:12;5.40;;;0.80;;
44446;SDS011;30152;52.066;5.358;2024-03-02T12:47:41;5.60;;;1.08;;
44446;SDS011;30152;52.066;5.358;2024-03-02T12:50:08;4.93;;;0.60;;
44446;SDS011;30152;52.066;5.358;2024-03-02T12:52:34;5.63;;;1.00;;
44446;SDS011;30152;52.066;5.358;2024-03-02T12:55:00;5.57;;;0.70;;
44446;SDS011;30152;52.066;5.358;2024-03-02T12:57:29;4.80;;;0.90;;
44446;SDS011;30152;52.066;5.358;2024-03-02T12:59:58;4.90;;;0.90;;
44446;SDS011;30152;52.066;5.358;2024-03-02T13:02:27;4.57;;;0.80;;
44446;SDS011;30152;52.066;5.358;2024-03-02T13:04:57;4.68;;;0.80;;
44446;SDS011;30152;52.066;5.358;2024-03-02T13:07:24;5.72;;;1.02;;
44446;SDS011;30152;52.066;5.358;2024-03-02T13:09:50;5.95;;;0.70;;
44446;SDS011;30152;52.066;5.358;2024-03-02T13:12:16;5.20;;;0.88;;
44446;SDS011;30152;52.066;5.358;2024-03-02T13:14:42;6.20;;;0.90;;
44446;SDS011;30152;52.066;5.358;2024-03-02T13:17:08;7.63;;;1.05;;
44446;SDS011;30152;52.066;5.358;2024-03-02T13:19:34;7.18;;;0.98;;
44446;SDS011;30152;52.066;5.358;2024-03-02T13:22:00;5.65;;;1.00;;
44446;SDS011;30152;52.066;5.358;2024-03-02T13:24:28;7.37;;;1.20;;
44446;SDS011;30152;52.066;5.358;2024-03-02T13:26:54;5.63;;;0.88;;
44446;SDS011;30152;52.066;5.358;2024-03-02T13:29:22;8.38;;;1.17;;
44446;SDS011;30152;52.066;5.358;2024-03-02T13:39:06;911.40;;;753.00;;
44446;SDS011;30152;52.066;5.358;2024-03-02T13:44:00;308.40;;;278.63;;
44446;SDS011;30152;52.066;5.358;2024-03-02T13:46:27;180.40;;;169.10;;
44446;SDS011;30152;52.066;5.358;2024-03-02T13:48:53;421.17;;;385.48;;
44446;SDS011;30152;52.066;5.358;2024-03-02T13:51:19;1036.40;;;934.60;;
44446;SDS011;30152;52.066;5.358;2024-03-02T13:53:45;1081.68;;;983.72;;
44446;SDS011;30152;52.066;5.358;2024-03-02T13:56:11;1067.85;;;955.40;;
44446;SDS011;30152;52.066;5.358;2024-03-02T13:58:37;986.90;;;879.50;;
44446;SDS011;30152;52.066;5.358;2024-03-02T14:01:04;1028.10;;;919.00;;
44446;SDS011;30152;52.066;5.358;2024-03-02T14:05:56;1035.23;;;940.50;;
44446;SDS011;30152;52.066;5.358;2024-03-02T14:08:22;1012.17;;;923.00;;
44446;SDS011;30152;52.066;5.358;2024-03-02T14:10:48;451.85;;;355.77;;
44446;SDS011;30152;52.066;5.358;2024-03-02T14:13:14;30.85;;;28.17;;
44446;SDS011;30152;52.066;5.358;2024-03-02T14:15:40;5.80;;;1.20;;
44446;SDS011;30152;52.066;5.358;2024-03-02T14:18:07;4.78;;;0.80;;
44446;SDS011;30152;52.066;5.358;2024-03-02T14:20:36;5.47;;;1.20;;
44446;SDS011;30152;52.066;5.358;2024-03-02T14:23:02;6.17;;;1.20;;
44446;SDS011;30152;52.066;5.358;2024-03-02T14:25:29;5.85;;;1.17;;
44446;SDS011;30152;52.066;5.358;2024-03-02T14:27:59;6.18;;;1.10;;
44446;SDS011;30152;52.066;5.358;2024-03-02T14:30:25;5.53;;;1.05;;
44446;SDS011;30152;52.066;5.358;2024-03-02T14:32:51;5.55;;;1.00;;
44446;SDS011;30152;52.066;5.358;2024-03-02T14:35:17;6.15;;;1.00;;
44446;SDS011;30152;52.066;5.358;2024-03-02T14:37:43;4.93;;;0.80;;
44446;SDS011;30152;52.066;5.358;2024-03-02T14:40:09;6.78;;;1.00;;
44446;SDS011;30152;52.066;5.358;2024-03-02T14:42:36;8.77;;;1.05;;
44446;SDS011;30152;52.066;5.358;2024-03-02T14:45:02;7.40;;;1.10;;
44446;SDS011;30152;52.066;5.358;2024-03-02T14:47:31;5.82;;;1.13;;
44446;SDS011;30152;52.066;5.358;2024-03-02T14:49:58;3.75;;;0.85;;
44446;SDS011;30152;52.066;5.358;2024-03-02T14:52:24;5.00;;;0.90;;
44446;SDS011;30152;52.066;5.358;2024-03-02T14:54:50;5.20;;;1.03;;
44446;SDS011;30152;52.066;5.358;2024-03-02T14:57:16;5.38;;;0.85;;
44446;SDS011;30152;52.066;5.358;2024-03-02T14:59:42;5.90;;;0.82;;
44446;SDS011;30152;52.066;5.358;2024-03-02T15:02:08;4.93;;;0.70;;
44446;SDS011;30152;52.066;5.358;2024-03-02T15:04:34;19.98;;;17.35;;
44446;SDS011;30152;52.066;5.358;2024-03-02T15:07:00;1159.18;;;999.90;;
44446;SDS011;30152;52.066;5.358;2024-03-02T15:09:26;601.13;;;546.80;;
44446;SDS011;30152;52.066;5.358;2024-03-02T15:11:52;1098.40;;;999.90;;
44446;SDS011;30152;52.066;5.358;2024-03-02T15:14:18;1130.15;;;999.90;;
44446;SDS011;30152;52.066;5.358;2024-03-02T15:16:44;1134.00;;;999.90;;
44446;SDS011;30152;52.066;5.358;2024-03-02T15:19:10;1128.57;;;999.90;;
44446;SDS011;30152;52.066;5.358;2024-03-02T15:24:03;683.17;;;620.28;;
44446;SDS011;30152;52.066;5.358;2024-03-02T15:26:29;8.48;;;4.15;;
44446;SDS011;30152;52.066;5.358;2024-03-02T15:28:55;65.72;;;55.08;;
44446;SDS011;30152;52.066;5.358;2024-03-02T15:31:23;8.73;;;2.90;;
44446;SDS011;30152;52.066;5.358;2024-03-02T15:33:49;198.02;;;181.80;;
44446;SDS011;30152;52.066;5.358;2024-03-02T15:36:15;14.52;;;13.00;;
44446;SDS011;30152;52.066;5.358;2024-03-02T15:38:41;5.30;;;0.80;;
44446;SDS011;30152;52.066;5.358;2024-03-02T15:41:08;5.88;;;0.90;;
44446;SDS011;30152;52.066;5.358;2024-03-02T15:43:35;3.80;;;0.80;;
44446;SDS011;30152;52.066;5.358;2024-03-02T15:46:03;5.22;;;0.90;;
44446;SDS011;30152;52.066;5.358;2024-03-02T15:48:30;128.02;;;117.47;;
44446;SDS011;30152;52.066;5.358;2024-03-02T15:50:57;1067.70;;;971.45;;
44446;SDS011;30152;52.066;5.358;2024-03-02T15:53:23;146.73;;;134.47;;
44446;SDS011;30152;52.066;5.358;2024-03-02T15:55:49;534.78;;;490.83;;
44446;SDS011;30152;52.066;5.358;2024-03-02T15:58:16;5.22;;;1.13;;
44446;SDS011;30152;52.066;5.358;2024-03-02T16:00:43;4.97;;;0.97;;
44446;SDS011;30152;52.066;5.358;2024-03-02T16:03:09;4.15;;;0.75;;
44446;SDS011;30152;52.066;5.358;2024-03-02T16:05:35;4.15;;;1.00;;
44446;SDS011;30152;52.066;5.358;2024-03-02T16:08:01;6.20;;;1.00;;
44446;SDS011;30152;52.066;5.358;2024-03-02T16:10:27;6.53;;;1.00;;
44446;SDS011;30152;52.066;5.358;2024-03-02T16:12:53;4.07;;;0.85;;
44446;SDS011;30152;52.066;5.358;2024-03-02T16:15:20;4.68;;;0.85;;
44446;SDS011;30152;52.066;5.358;2024-03-02T16:17:46;4.63;;;0.98;;
44446;SDS011;30152;52.066;5.358;2024-03-02T16:20:12;3.38;;;0.80;;
44446;SDS011;30152;52.066;5.358;2024-03-02T16:22:38;5.10;;;1.10;;
44446;SDS011;30152;52.066;5.358;2024-03-02T16:25:04;7.47;;;1.20;;
44446;SDS011;30152;52.066;5.358;2024-03-02T16:27:30;4.25;;;0.80;;
44446;SDS011;30152;52.066;5.358;2024-03-02T16:29:56;5.07;;;0.90;;
44446;SDS011;30152;52.066;5.358;2024-03-02T16:32:24;5.15;;;0.95;;
44446;SDS011;30152;52.066;5.358;2024-03-02T16:34:51;3.90;;;1.07;;
44446;SDS011;30152;52.066;5.358;2024-03-02T16:37:17;6.70;;;1.10;;
44446;SDS011;30152;52.066;5.358;2024-03-02T16:39:44;6.15;;;1.23;;
44446;SDS011;30152;52.066;5.358;2024-03-02T16:42:10;4.10;;;1.00;;
44446;SDS011;30152;52.066;5.358;2024-03-02T16:44:36;5.18;;;1.08;;
44446;SDS011;30152;52.066;5.358;2024-03-02T16:47:02;5.55;;;1.08;;
44446;SDS011;30152;52.066;5.358;2024-03-02T16:49:30;6.53;;;1.05;;
44446;SDS011;30152;52.066;5.358;2024-03-02T16:51:56;52.85;;;48.13;;
44446;SDS011;30152;52.066;5.358;2024-03-02T16:54:22;128.50;;;118.60;;
44446;SDS011;30152;52.066;5.358;2024-03-02T16:56:48;5.35;;;1.10;;
44446;SDS011;30152;52.066;5.358;2024-03-02T16:59:14;4.22;;;0.90;;
44446;SDS011;30152;52.066;5.358;2024-03-02T17:01:40;5.30;;;0.90;;
44446;SDS011;30152;52.066;5.358;2024-03-02T17:04:06;5.70;;;1.00;;
44446;SDS011;30152;52.066;5.358;2024-03-02T17:06:32;4.57;;;1.00;;
44446;SDS011;30152;52.066;5.358;2024-03-02T17:08:58;5.57;;;1.25;;
44446;SDS011;30152;52.066;5.358;2024-03-02T17:11:24;5.15;;;1.08;;
44446;SDS011;30152;52.066;5.358;2024-03-02T17:13:50;6.82;;;1.00;;
44446;SDS011;30152;52.066;5.358;2024-03-02T17:16:22;5.03;;;0.87;;
44446;SDS011;30152;52.066;5.358;2024-03-02T17:18:48;23.23;;;20.83;;
44446;SDS011;30152;52.066;5.358;2024-03-02T17:21:14;6.50;;;1.10;;
44446;SDS011;30152;52.066;5.358;2024-03-02T17:23:40;3.38;;;0.80;;
44446;SDS011;30152;52.066;5.358;2024-03-02T17:26:06;4.57;;;1.08;;
44446;SDS011;30152;52.066;5.358;2024-03-02T17:28:32;4.25;;;1.13;;
44446;SDS011;30152;52.066;5.358;2024-03-02T17:30:58;4.97;;;1.10;;
44446;SDS011;30152;52.066;5.358;2024-03-02T17:33:24;5.18;;;1.10;;
44446;SDS011;30152;52.066;5.358;2024-03-02T17:35:50;6.75;;;1.30;;
44446;SDS011;30152;52.066;5.358;2024-03-02T17:38:17;5.15;;;1.08;;
44446;SDS011;30152;52.066;5.358;2024-03-02T17:40:43;3.72;;;1.00;;
44446;SDS011;30152;52.066;5.358;2024-03-02T17:43:10;4.38;;;1.08;;
44446;SDS011;30152;52.066;5.358;2024-03-02T17:45:38;5.10;;;1.20;;
44446;SDS011;30152;52.066;5.358;2024-03-02T17:48:08;3.88;;;1.05;;
44446;SDS011;30152;52.066;5.358;2024-03-02T17:50:36;3.88;;;1.10;;
44446;SDS011;30152;52.066;5.358;2024-03-02T17:53:02;4.88;;;1.25;;
44446;SDS011;30152;52.066;5.358;2024-03-02T17:55:28;5.80;;;1.42;;
44446;SDS011;30152;52.066;5.358;2024-03-02T17:57:54;5.88;;;1.25;;
44446;SDS011;30152;52.066;5.358;2024-03-02T18:00:20;5.45;;;1.20;;
44446;SDS011;30152;52.066;5.358;2024-03-02T18:02:46;6.43;;;1.33;;
44446;SDS011;30152;52.066;5.358;2024-03-02T18:05:13;4.70;;;1.25;;
44446;SDS011;30152;52.066;5.358;2024-03-02T18:07:39;5.15;;;1.27;;
44446;SDS011;30152;52.066;5.358;2024-03-02T18:10:05;3.40;;;1.20;;
44446;SDS011;30152;52.066;5.358;2024-03-02T18:12:31;6.25;;;1.60;;
44446;SDS011;30152;52.066;5.358;2024-03-02T18:14:57;4.18;;;1.40;;
44446;SDS011;30152;52.066;5.358;2024-03-02T18:17:23;5.90;;;1.45;;
44446;SDS011;30152;52.066;5.358;2024-03-02T18:19:49;4.35;;;1.23;;
44446;SDS011;30152;52.066;5.358;2024-03-02T18:22:16;5.13;;;1.60;;
44446;SDS011;30152;52.066;5.358;2024-03-02T18:24:41;4.13;;;1.38;;
44446;SDS011;30152;52.066;5.358;2024-03-02T18:27:09;5.07;;;1.67;;
44446;SDS011;30152;52.066;5.358;2024-03-02T18:29:35;6.00;;;1.50;;
44446;SDS011;30152;52.066;5.358;2024-03-02T18:32:01;5.63;;;1.60;;
44446;SDS011;30152;52.066;5.358;2024-03-02T18:34:28;5.22;;;1.40;;
44446;SDS011;30152;52.066;5.358;2024-03-02T18:36:54;5.78;;;1.55;;
44446;SDS011;30152;52.066;5.358;2024-03-02T18:39:20;3.92;;;1.38;;
44446;SDS011;30152;52.066;5.358;2024-03-02T18:41:46;5.68;;;1.70;;
44446;SDS011;30152;52.066;5.358;2024-03-02T18:44:12;4.55;;;1.40;;
44446;SDS011;30152;52.066;5.358;2024-03-02T18:46:38;4.87;;;1.60;;
44446;SDS011;30152;52.066;5.358;2024-03-02T18:49:04;5.32;;;1.58;;
44446;SDS011;30152;52.066;5.358;2024-03-02T18:51:30;6.40;;;1.58;;
44446;SDS011;30152;52.066;5.358;2024-03-02T18:53:56;4.93;;;1.52;;
44446;SDS011;30152;52.066;5.358;2024-03-02T18:56:22;5.45;;;1.50;;
44446;SDS011;30152;52.066;5.358;2024-03-02T18:58:48;6.75;;;1.63;;
44446;SDS011;30152;52.066;5.358;2024-03-02T19:01:14;7.10;;;1.57;;
44446;SDS011;30152;52.066;5.358;2024-03-02T19:03:40;5.07;;;1.40;;
44446;SDS011;30152;52.066;5.358;2024-03-02T19:06:06;5.18;;;1.60;;
44446;SDS011;30152;52.066;5.358;2024-03-02T19:08:33;4.80;;;1.40;;
44446;SDS011;30152;52.066;5.358;2024-03-02T19:10:59;5.35;;;1.60;;
44446;SDS011;30152;52.066;5.358;2024-03-02T19:13:25;5.72;;;1.67;;
44446;SDS011;30152;52.066;5.358;2024-03-02T19:15:51;4.45;;;1.40;;
44446;SDS011;30152;52.066;5.358;2024-03-02T19:18:17;4.43;;;1.50;;
44446;SDS011;30152;52.066;5.358;2024-03-02T19:20:43;4.18;;;1.40;;
44446;SDS011;30152;52.066;5.358;2024-03-02T19:23:09;4.60;;;1.37;;
44446;SDS011;30152;52.066;5.358;2024-03-02T19:25:35;4.93;;;1.38;;
44446;SDS011;30152;52.066;5.358;2024-03-02T19:28:01;4.85;;;1.80;;
44446;SDS011;30152;52.066;5.358;2024-03-02T19:30:27;5.25;;;1.50;;
44446;SDS011;30152;52.066;5.358;2024-03-02T19:32:53;6.38;;;1.55;;
44446;SDS011;30152;52.066;5.358;2024-03-02T19:35:19;4.47;;;1.80;;
44446;SDS011;30152;52.066;5.358;2024-03-02T19:37:45;5.28;;;1.67;;
44446;SDS011;30152;52.066;5.358;2024-03-02T19:40:11;4.07;;;1.50;;
44446;SDS011;30152;52.066;5.358;2024-03-02T19:42:37;5.47;;;1.60;;
44446;SDS011;30152;52.066;5.358;2024-03-02T19:45:03;6.20;;;1.75;;
44446;SDS011;30152;52.066;5.358;2024-03-02T19:47:30;6.18;;;2.20;;
44446;SDS011;30152;52.066;5.358;2024-03-02T19:49:57;8.23;;;3.00;;
44446;SDS011;30152;52.066;5.358;2024-03-02T19:52:23;6.13;;;2.73;;
44446;SDS011;30152;52.066;5.358;2024-03-02T19:54:49;7.25;;;1.70;;
44446;SDS011;30152;52.066;5.358;2024-03-02T19:57:15;5.15;;;1.90;;
44446;SDS011;30152;52.066;5.358;2024-03-02T19:59:42;5.95;;;1.90;;
44446;SDS011;30152;52.066;5.358;2024-03-02T20:02:08;7.50;;;1.88;;
44446;SDS011;30152;52.066;5.358;2024-03-02T20:04:36;5.82;;;2.20;;
44446;SDS011;30152;52.066;5.358;2024-03-02T20:07:03;4.53;;;1.55;;
44446;SDS011;30152;52.066;5.358;2024-03-02T20:09:30;5.03;;;1.80;;
44446;SDS011;30152;52.066;5.358;2024-03-02T20:11:56;6.15;;;1.60;;
44446;SDS011;30152;52.066;5.358;2024-03-02T20:14:25;5.55;;;1.95;;
44446;SDS011;30152;52.066;5.358;2024-03-02T20:16:51;5.45;;;1.70;;
44446;SDS011;30152;52.066;5.358;2024-03-02T20:19:17;5.80;;;1.97;;
44446;SDS011;30152;52.066;5.358;2024-03-02T20:21:43;5.87;;;1.70;;
44446;SDS011;30152;52.066;5.358;2024-03-02T20:24:09;5.50;;;1.70;;
44446;SDS011;30152;52.066;5.358;2024-03-02T20:26:36;4.88;;;1.90;;
44446;SDS011;30152;52.066;5.358;2024-03-02T20:29:03;5.88;;;2.10;;
44446;SDS011;30152;52.066;5.358;2024-03-02T20:31:29;6.22;;;2.28;;
44446;SDS011;30152;52.066;5.358;2024-03-02T20:33:55;5.03;;;2.00;;
44446;SDS011;30152;52.066;5.358;2024-03-02T20:36:21;6.25;;;2.40;;
44446;SDS011;30152;52.066;5.358;2024-03-02T20:38:47;6.78;;;2.38;;
44446;SDS011;30152;52.066;5.358;2024-03-02T20:41:15;6.38;;;2.30;;
44446;SDS011;30152;52.066;5.358;2024-03-02T20:43:42;5.10;;;2.10;;
44446;SDS011;30152;52.066;5.358;2024-03-02T20:46:08;7.65;;;2.60;;
44446;SDS011;30152;52.066;5.358;2024-03-02T20:48:34;6.25;;;2.30;;
44446;SDS011;30152;52.066;5.358;2024-03-02T20:51:00;5.78;;;2.30;;
44446;SDS011;30152;52.066;5.358;2024-03-02T20:53:26;6.45;;;2.30;;
44446;SDS011;30152;52.066;5.358;2024-03-02T20:55:52;6.00;;;2.50;;
44446;SDS011;30152;52.066;5.358;2024-03-02T20:58:18;5.88;;;2.15;;
44446;SDS011;30152;52.066;5.358;2024-03-02T21:00:44;5.80;;;2.15;;
44446;SDS011;30152;52.066;5.358;2024-03-02T21:03:10;6.97;;;2.53;;
44446;SDS011;30152;52.066;5.358;2024-03-02T21:05:36;5.18;;;2.20;;
44446;SDS011;30152;52.066;5.358;2024-03-02T21:08:02;5.57;;;2.30;;
44446;SDS011;30152;52.066;5.358;2024-03-02T21:10:28;6.65;;;2.40;;
44446;SDS011;30152;52.066;5.358;2024-03-02T21:12:54;5.32;;;2.00;;
44446;SDS011;30152;52.066;5.358;2024-03-02T21:15:23;7.53;;;2.38;;
44446;SDS011;30152;52.066;5.358;2024-03-02T21:17:50;5.60;;;2.33;;
44446;SDS011;30152;52.066;5.358;2024-03-02T21:20:16;5.07;;;1.85;;
44446;SDS011;30152;52.066;5.358;2024-03-02T21:22:42;5.68;;;2.33;;
44446;SDS011;30152;52.066;5.358;2024-03-02T21:25:12;202.07;;;187.57;;
44446;SDS011;30152;52.066;5.358;2024-03-02T21:27:40;396.30;;;366.57;;
44446;SDS011;30152;52.066;5.358;2024-03-02T21:30:06;28.30;;;23.67;;
44446;SDS011;30152;52.066;5.358;2024-03-02T21:32:33;53.17;;;47.40;;
44446;SDS011;30152;52.066;5.358;2024-03-02T21:34:59;7.18;;;3.00;;
44446;SDS011;30152;52.066;5.358;2024-03-02T21:37:25;112.28;;;101.05;;
44446;SDS011;30152;52.066;5.358;2024-03-02T21:39:52;5.80;;;2.10;;
44446;SDS011;30152;52.066;5.358;2024-03-02T21:42:18;5.82;;;1.70;;
44446;SDS011;30152;52.066;5.358;2024-03-02T21:44:44;257.13;;;229.93;;
44446;SDS011;30152;52.066;5.358;2024-03-02T21:47:10;7.07;;;2.60;;
44446;SDS011;30152;52.066;5.358;2024-03-02T21:49:37;6.50;;;2.03;;
44446;SDS011;30152;52.066;5.358;2024-03-02T21:52:03;8.00;;;3.60;;
44446;SDS011;30152;52.066;5.358;2024-03-02T21:54:29;6.22;;;2.05;;
44446;SDS011;30152;52.066;5.358;2024-03-02T21:56:55;5.22;;;1.92;;
44446;SDS011;30152;52.066;5.358;2024-03-02T21:59:22;5.80;;;2.08;;
44446;SDS011;30152;52.066;5.358;2024-03-02T22:01:48;5.80;;;2.00;;
44446;SDS011;30152;52.066;5.358;2024-03-02T22:04:14;5.65;;;2.08;;
44446;SDS011;30152;52.066;5.358;2024-03-02T22:06:40;5.15;;;1.95;;
44446;SDS011;30152;52.066;5.358;2024-03-02T22:09:06;5.90;;;2.07;;
44446;SDS011;30152;52.066;5.358;2024-03-02T22:11:32;5.70;;;2.10;;
